createdAt,value
2023-04-22T00:02:14.842Z,6.76
2023-04-22T00:04:47.794Z,6.72
2023-04-22T00:07:20.351Z,6.70
2023-04-22T00:09:52.626Z,6.67
2023-04-22T00:12:25.313Z,6.66
2023-04-22T00:14:57.481Z,6.61
2023-04-22T00:17:29.904Z,6.60
2023-04-22T00:20:02.617Z,6.60
2023-04-22T00:22:36.798Z,6.57
2023-04-22T00:25:10.166Z,6.57
2023-04-22T00:27:42.893Z,6.57
2023-04-22T00:30:16.452Z,6.56
2023-04-22T00:32:49.290Z,6.57
2023-04-22T00:35:21.677Z,6.57
2023-04-22T00:37:53.954Z,6.56
2023-04-22T00:40:28.594Z,6.56
2023-04-22T00:43:04.084Z,6.56
2023-04-22T00:45:38.156Z,6.57
2023-04-22T00:48:11.419Z,6.59
2023-04-22T00:50:44.215Z,6.61
2023-04-22T00:53:17.905Z,6.59
2023-04-22T00:55:50.242Z,6.59
2023-04-22T00:58:27.245Z,6.59
2023-04-22T01:00:59.870Z,6.57
2023-04-22T01:03:34.458Z,6.55
2023-04-22T01:06:07.085Z,6.55
2023-04-22T01:08:41.060Z,6.53
2023-04-22T01:11:13.402Z,6.52
2023-04-22T01:13:45.797Z,6.49
2023-04-22T01:16:18.683Z,6.48
2023-04-22T01:18:53.087Z,6.45
2023-04-22T01:21:25.676Z,6.40
2023-04-22T01:23:58.368Z,6.38
2023-04-22T01:26:30.947Z,6.33
2023-04-22T01:29:05.205Z,6.29
2023-04-22T01:31:39.148Z,6.24
2023-04-22T01:34:13.482Z,6.19
2023-04-22T01:36:45.249Z,6.14
2023-04-22T01:39:17.645Z,6.12
2023-04-22T01:41:50.498Z,6.08
2023-04-22T01:44:22.884Z,6.05
2023-04-22T01:46:55.802Z,6.02
2023-04-22T01:49:28.541Z,5.97
2023-04-22T01:52:01.977Z,5.90
2023-04-22T01:54:37.970Z,5.91
2023-04-22T01:57:14.421Z,5.87
2023-04-22T01:59:47.890Z,5.83
2023-04-22T02:02:20.880Z,5.82
2023-04-22T02:04:53.376Z,5.74
2023-04-22T02:07:26.164Z,5.67
2023-04-22T02:09:58.724Z,5.62
2023-04-22T02:12:31.497Z,5.59
2023-04-22T02:15:04.566Z,5.55
2023-04-22T02:17:38.076Z,5.50
2023-04-22T02:20:14.458Z,5.45
2023-04-22T02:22:47.544Z,5.41
2023-04-22T02:25:21.366Z,5.35
2023-04-22T02:27:55.741Z,5.29
2023-04-22T02:30:29.857Z,5.25
2023-04-22T02:33:02.924Z,5.24
2023-04-22T02:35:36.438Z,5.21
2023-04-22T02:38:09.202Z,5.21
2023-04-22T02:40:42.634Z,5.17
2023-04-22T02:43:15.104Z,5.14
2023-04-22T02:45:47.711Z,5.10
2023-04-22T02:48:20.755Z,5.07
2023-04-22T02:50:53.882Z,5.04
2023-04-22T02:53:27.741Z,5.03
2023-04-22T02:56:00.456Z,5.01
2023-04-22T02:58:33.027Z,4.97
2023-04-22T03:01:06.504Z,4.94
2023-04-22T03:03:39.695Z,4.89
2023-04-22T03:06:11.791Z,4.83
2023-04-22T03:08:44.061Z,4.83
2023-04-22T03:11:16.728Z,4.82
2023-04-22T03:13:49.705Z,4.77
2023-04-22T03:16:24.606Z,4.75
2023-04-22T03:18:58.149Z,4.72
2023-04-22T03:21:32.749Z,4.71
2023-04-22T03:24:06.884Z,4.69
2023-04-22T03:26:40.109Z,4.68
2023-04-22T03:29:14.786Z,4.65
2023-04-22T03:31:48.364Z,4.65
2023-04-22T03:34:20.983Z,4.65
2023-04-22T03:36:53.832Z,4.65
2023-04-22T03:39:26.435Z,4.65
2023-04-22T03:42:02.231Z,4.65
2023-04-22T03:44:35.817Z,4.63
2023-04-22T03:47:10.350Z,4.63
2023-04-22T03:49:48.279Z,4.63
2023-04-22T03:52:20.792Z,4.69
2023-04-22T03:54:59.712Z,4.66
2023-04-22T03:57:33.061Z,4.69
2023-04-22T04:00:08.464Z,4.72
2023-04-22T04:02:47.145Z,4.72
2023-04-22T04:05:21.936Z,4.76
2023-04-22T04:07:54.426Z,4.80
2023-04-22T04:10:29.646Z,4.84
2023-04-22T04:13:02.831Z,4.86
2023-04-22T04:15:38.423Z,4.91
2023-04-22T04:18:11.822Z,4.99
2023-04-22T04:20:44.256Z,5.03
2023-04-22T04:23:17.152Z,5.15
2023-04-22T04:25:50.258Z,6.02
2023-04-22T04:28:23.510Z,7.47
2023-04-22T04:30:55.934Z,8.99
2023-04-22T04:33:28.877Z,9.57
2023-04-22T04:36:02.063Z,9.43
2023-04-22T04:38:40.686Z,9.27
2023-04-22T04:41:14.623Z,9.37
2023-04-22T04:43:53.110Z,10.33
2023-04-22T04:46:37.203Z,12.26
2023-04-22T04:49:12.874Z,14.20
2023-04-22T04:51:58.628Z,16.20
2023-04-22T04:54:31.964Z,17.92
2023-04-22T04:57:10.299Z,19.58
2023-04-22T04:59:43.326Z,21.07
2023-04-22T05:02:16.534Z,22.35
2023-04-22T05:04:50.908Z,23.52
2023-04-22T05:07:23.798Z,24.35
2023-04-22T05:09:57.216Z,24.49
2023-04-22T05:12:30.096Z,23.76
2023-04-22T05:15:03.019Z,22.69
2023-04-22T05:17:36.592Z,22.31
2023-04-22T05:20:10.889Z,23.13
2023-04-22T05:22:46.286Z,24.44
2023-04-22T05:25:19.591Z,25.62
2023-04-22T05:27:59.148Z,26.73
2023-04-22T05:30:35.016Z,27.56
2023-04-22T05:33:08.788Z,28.39
2023-04-22T05:35:41.447Z,28.62
2023-04-22T05:38:13.968Z,28.24
2023-04-22T05:40:46.675Z,27.48
2023-04-22T05:43:21.164Z,26.63
2023-04-22T05:45:59.732Z,25.50
2023-04-22T05:48:34.502Z,24.48
2023-04-22T05:51:09.282Z,23.69
2023-04-22T05:53:42.185Z,23.13
2023-04-22T05:56:16.106Z,23.20
2023-04-22T05:58:48.821Z,23.66
2023-04-22T06:01:25.201Z,24.28
2023-04-22T06:04:03.380Z,24.73
2023-04-22T06:06:38.040Z,24.15
2023-04-22T06:09:11.246Z,23.20
2023-04-22T06:11:46.110Z,22.25
2023-04-22T06:14:18.569Z,21.31
2023-04-22T06:16:53.432Z,20.53
2023-04-22T06:19:26.042Z,19.83
2023-04-22T06:21:58.440Z,19.25
2023-04-22T06:24:30.895Z,18.69
2023-04-22T06:27:06.650Z,18.24
2023-04-22T06:29:39.608Z,17.92
2023-04-22T06:32:12.634Z,17.75
2023-04-22T06:34:49.393Z,17.51
2023-04-22T06:37:22.133Z,17.34
2023-04-22T06:39:54.718Z,17.68
2023-04-22T06:42:50.989Z,19.25
2023-04-22T06:45:23.389Z,20.58
2023-04-22T06:48:16.129Z,21.92
2023-04-22T06:51:02.414Z,22.87
2023-04-22T06:53:35.665Z,23.42
2023-04-22T06:56:09.107Z,23.77
2023-04-22T06:58:40.667Z,23.65
2023-04-22T07:01:13.247Z,23.48
2023-04-22T07:03:46.860Z,23.66
2023-04-22T07:06:20.755Z,23.84
2023-04-22T07:08:56.836Z,23.86
2023-04-22T07:11:31.688Z,24.10
2023-04-22T07:14:08.637Z,24.75
2023-04-22T07:16:41.981Z,25.18
2023-04-22T07:19:14.428Z,25.46
2023-04-22T07:21:47.174Z,25.55
2023-04-22T07:24:19.893Z,25.49
2023-04-22T07:26:52.459Z,25.11
2023-04-22T07:29:25.047Z,24.66
2023-04-22T07:32:05.301Z,24.21
2023-04-22T07:34:45.767Z,23.56
2023-04-22T07:37:20.128Z,22.93
2023-04-22T07:39:52.641Z,22.35
2023-04-22T07:42:27.851Z,21.78
2023-04-22T07:45:00.343Z,21.49
2023-04-22T07:47:39.198Z,21.50
2023-04-22T07:50:14.733Z,21.58
2023-04-22T07:52:47.378Z,21.53
2023-04-22T07:55:19.752Z,22.00
2023-04-22T07:57:52.388Z,22.32
2023-04-22T08:00:25.036Z,22.52
2023-04-22T08:02:59.667Z,23.20
2023-04-22T08:05:33.225Z,23.73
2023-04-22T08:08:06.238Z,23.87
2023-04-22T08:10:41.223Z,24.05
2023-04-22T08:13:15.849Z,24.05
2023-04-22T08:15:49.744Z,23.72
2023-04-22T08:18:22.142Z,23.50
2023-04-22T08:20:54.649Z,23.48
2023-04-22T08:23:30.841Z,23.55
2023-04-22T08:26:04.490Z,23.44
2023-04-22T08:28:37.970Z,23.09
2023-04-22T08:31:12.390Z,22.94
2023-04-22T08:33:44.818Z,22.90
2023-04-22T08:36:18.014Z,22.98
2023-04-22T08:38:53.150Z,23.38
2023-04-22T08:41:26.089Z,23.99
2023-04-22T08:43:59.291Z,24.69
2023-04-22T08:46:32.639Z,25.42
2023-04-22T08:49:05.404Z,25.87
2023-04-22T08:51:40.479Z,26.12
2023-04-22T08:54:13.500Z,26.30
2023-04-22T08:56:48.101Z,26.39
2023-04-22T08:59:22.356Z,26.46
2023-04-22T09:01:59.394Z,26.52
2023-04-22T09:04:32.338Z,26.65
2023-04-22T09:07:06.054Z,26.73
2023-04-22T09:09:40.316Z,26.82
2023-04-22T09:12:13.143Z,26.79
2023-04-22T09:14:47.357Z,26.76
2023-04-22T09:17:30.913Z,26.52
2023-04-22T09:20:07.102Z,26.23
2023-04-22T09:22:49.895Z,26.16
2023-04-22T09:25:23.822Z,26.18
2023-04-22T09:27:57.612Z,26.00
2023-04-22T09:30:32.168Z,25.80
2023-04-22T09:33:06.841Z,25.79
2023-04-22T09:35:41.506Z,25.82
2023-04-22T09:38:15.216Z,25.96
2023-04-22T09:40:47.487Z,26.07
2023-04-22T09:43:22.321Z,26.16
2023-04-22T09:45:54.644Z,26.23
2023-04-22T09:48:27.134Z,26.35
2023-04-22T09:50:59.336Z,26.58
2023-04-22T09:53:38.579Z,26.78
2023-04-22T09:56:11.519Z,26.85
2023-04-22T09:58:46.165Z,26.74
2023-04-22T10:01:22.613Z,26.62
2023-04-22T10:03:57.177Z,26.65
2023-04-22T10:06:32.272Z,26.56
2023-04-22T10:09:06.943Z,26.52
2023-04-22T10:11:42.070Z,26.62
2023-04-22T10:14:15.564Z,26.58
2023-04-22T10:16:53.302Z,26.58
2023-04-22T10:19:30.221Z,26.58
2023-04-22T10:22:05.038Z,26.46
2023-04-22T10:24:42.207Z,26.42
2023-04-22T10:27:15.138Z,26.37
2023-04-22T10:29:50.277Z,26.21
2023-04-22T10:32:29.483Z,26.10
2023-04-22T10:35:16.906Z,26.00
2023-04-22T10:37:53.990Z,25.94
2023-04-22T10:40:26.676Z,25.89
2023-04-22T10:43:03.961Z,25.93
2023-04-22T10:45:38.999Z,25.93
2023-04-22T10:48:11.514Z,25.96
2023-04-22T10:50:47.359Z,26.03
2023-04-22T10:53:41.009Z,26.11
2023-04-22T10:56:21.341Z,26.04
2023-04-22T10:58:58.860Z,25.90
2023-04-22T11:01:38.415Z,25.64
2023-04-22T11:04:27.551Z,25.38
2023-04-22T11:07:17.636Z,25.32
2023-04-22T11:09:53.873Z,25.37
2023-04-22T11:12:46.943Z,25.29
2023-04-22T11:15:22.611Z,25.14
2023-04-22T11:17:56.413Z,24.90
2023-04-22T11:20:30.772Z,24.72
2023-04-22T11:23:12.634Z,24.58
2023-04-22T11:25:45.364Z,24.56
2023-04-22T11:28:19.366Z,24.62
2023-04-22T11:30:53.569Z,24.54
2023-04-22T11:33:26.119Z,24.52
2023-04-22T11:35:58.922Z,24.55
2023-04-22T11:38:31.782Z,24.56
2023-04-22T11:41:05.391Z,24.56
2023-04-22T11:43:46.930Z,24.48
2023-04-22T11:46:29.166Z,24.49
2023-04-22T11:49:16.739Z,24.41
2023-04-22T11:51:59.987Z,24.41
2023-04-22T11:54:37.666Z,24.55
2023-04-22T11:57:14.305Z,24.63
2023-04-22T11:59:58.152Z,24.77
2023-04-22T12:02:31.573Z,24.80
2023-04-22T12:05:05.154Z,24.83
2023-04-22T12:07:36.396Z,24.94
2023-04-22T12:10:11.997Z,25.00
2023-04-22T12:12:44.521Z,25.06
2023-04-22T12:15:18.828Z,25.07
2023-04-22T12:17:53.303Z,25.00
2023-04-22T12:20:25.715Z,24.90
2023-04-22T12:22:59.232Z,24.90
2023-04-22T12:25:34.060Z,24.94
2023-04-22T12:28:06.605Z,25.03
2023-04-22T12:30:39.426Z,25.01
2023-04-22T12:33:12.385Z,24.99
2023-04-22T12:35:47.267Z,24.97
2023-04-22T12:38:19.709Z,25.10
2023-04-22T12:40:52.405Z,25.13
2023-04-22T12:43:24.806Z,25.10
2023-04-22T12:45:57.554Z,24.96
2023-04-22T12:48:30.308Z,24.69
2023-04-22T12:51:03.240Z,24.55
2023-04-22T12:53:37.681Z,24.51
2023-04-22T12:56:10.236Z,24.39
2023-04-22T12:58:42.914Z,24.24
2023-04-22T13:01:15.604Z,24.15
2023-04-22T13:03:53.553Z,24.12
2023-04-22T13:06:27.037Z,24.14
2023-04-22T13:08:59.462Z,24.08
2023-04-22T13:14:46.725Z,24.00
2023-04-22T13:17:19.807Z,23.96
2023-04-22T13:19:52.274Z,23.89
2023-04-22T13:22:24.763Z,23.82
2023-04-22T13:24:57.718Z,23.82
2023-04-22T13:27:30.408Z,23.70
2023-04-22T13:30:04.225Z,23.52
2023-04-22T13:32:35.224Z,23.48
2023-04-22T13:35:09.696Z,23.42
2023-04-22T13:37:42.182Z,23.37
2023-04-22T13:40:15.193Z,23.32
2023-04-22T13:42:49.716Z,23.34
2023-04-22T13:45:22.683Z,23.25
2023-04-22T13:47:57.031Z,23.28
2023-04-22T13:50:29.539Z,23.25
2023-04-22T13:53:05.214Z,23.22
2023-04-22T13:55:39.648Z,23.22
2023-04-22T13:58:12.338Z,23.22
2023-04-22T14:00:46.508Z,23.22
2023-04-22T14:03:19.686Z,23.20
2023-04-22T14:05:53.681Z,23.10
2023-04-22T14:08:27.485Z,22.91
2023-04-22T14:11:00.534Z,22.77
2023-04-22T14:13:33.429Z,22.67
2023-04-22T14:16:09.851Z,22.67
2023-04-22T14:18:45.942Z,22.67
2023-04-22T14:21:20.770Z,22.65
2023-04-22T14:23:53.586Z,22.60
2023-04-22T14:26:26.087Z,22.62
2023-04-22T14:28:58.627Z,22.65
2023-04-22T14:31:31.398Z,22.66
2023-04-22T14:34:03.023Z,22.60
2023-04-22T14:36:35.840Z,22.55
2023-04-22T14:39:08.471Z,22.49
2023-04-22T14:41:42.025Z,22.43
2023-04-22T14:44:15.378Z,22.39
2023-04-22T14:46:47.874Z,22.35
2023-04-22T14:49:21.518Z,22.29
2023-04-22T14:51:52.320Z,22.32
2023-04-22T14:54:25.178Z,22.31
2023-04-22T14:56:58.919Z,22.35
2023-04-22T14:59:31.976Z,22.38
2023-04-22T15:02:05.643Z,22.34
2023-04-22T15:04:38.327Z,22.20
2023-04-22T15:07:11.039Z,22.15
2023-04-22T15:09:44.188Z,22.07
2023-04-22T15:12:17.073Z,21.96
2023-04-22T15:14:51.782Z,21.86
2023-04-22T15:17:25.610Z,21.80
2023-04-22T15:19:58.462Z,21.77
2023-04-22T15:22:30.886Z,21.70
2023-04-22T15:25:04.291Z,21.63
2023-04-22T15:27:37.632Z,21.55
2023-04-22T15:30:11.948Z,21.46
2023-04-22T15:32:44.622Z,21.42
2023-04-22T15:35:17.366Z,21.39
2023-04-22T15:37:49.998Z,21.27
2023-04-22T15:40:22.792Z,21.19
2023-04-22T15:42:55.673Z,21.14
2023-04-22T15:45:28.574Z,21.08
2023-04-22T15:48:01.722Z,21.03
2023-04-22T15:50:36.828Z,20.91
2023-04-22T15:53:11.258Z,20.89
2023-04-22T15:55:44.631Z,20.82
2023-04-22T15:58:18.590Z,20.76
2023-04-22T16:00:51.481Z,20.69
2023-04-22T16:03:24.249Z,20.60
2023-04-22T16:05:57.217Z,20.58
2023-04-22T16:08:29.842Z,20.46
2023-04-22T16:11:02.652Z,20.36
2023-04-22T16:13:35.346Z,20.27
2023-04-22T16:16:08.185Z,20.20
2023-04-22T16:18:44.097Z,20.14
2023-04-22T16:21:16.974Z,20.08
2023-04-22T16:23:49.971Z,20.01
2023-04-22T16:26:22.612Z,19.93
2023-04-22T16:28:55.804Z,19.86
2023-04-22T16:31:28.205Z,19.79
2023-04-22T16:34:02.393Z,19.70
2023-04-22T16:36:34.955Z,19.60
2023-04-22T16:39:07.935Z,19.49
2023-04-22T16:41:41.328Z,19.42
2023-04-22T16:44:15.412Z,19.32
2023-04-22T16:46:47.770Z,19.24
2023-04-22T16:49:20.500Z,19.13
2023-04-22T16:51:53.101Z,19.03
2023-04-22T16:54:26.013Z,18.93
2023-04-22T16:56:58.957Z,18.83
2023-04-22T16:59:32.272Z,18.72
2023-04-22T17:02:04.766Z,18.58
2023-04-22T17:04:38.064Z,18.48
2023-04-22T17:07:11.293Z,18.35
2023-04-22T17:09:44.040Z,18.23
2023-04-22T17:12:16.623Z,18.08
2023-04-22T17:14:49.778Z,17.96
2023-04-22T17:17:24.299Z,17.82
2023-04-22T17:19:57.156Z,17.68
2023-04-22T17:22:30.055Z,17.51
2023-04-22T17:25:03.091Z,17.35
2023-04-22T17:27:35.901Z,17.15
2023-04-22T17:30:10.559Z,17.03
2023-04-22T17:32:43.172Z,16.87
2023-04-22T17:35:16.757Z,16.73
2023-04-22T17:37:49.114Z,16.62
2023-04-22T17:40:22.562Z,16.47
2023-04-22T17:42:54.901Z,16.32
2023-04-22T17:45:27.693Z,16.19
2023-04-22T17:48:00.020Z,16.00
2023-04-22T17:50:35.417Z,15.86
2023-04-22T17:53:07.690Z,15.73
2023-04-22T17:55:40.344Z,15.59
2023-04-22T17:58:12.805Z,15.42
2023-04-22T18:00:46.576Z,15.27
2023-04-22T18:03:20.486Z,15.10
2023-04-22T18:05:52.763Z,14.95
2023-04-22T18:08:25.208Z,14.83
2023-04-22T18:11:02.505Z,14.67
2023-04-22T18:13:35.662Z,14.52
2023-04-22T18:16:09.357Z,14.38
2023-04-22T18:18:42.427Z,14.25
2023-04-22T18:21:15.316Z,14.14
2023-04-22T18:23:48.136Z,14.02
2023-04-22T18:26:20.854Z,13.92
2023-04-22T18:28:53.334Z,13.84
2023-04-22T18:31:26.022Z,13.76
2023-04-22T18:33:58.616Z,13.65
2023-04-22T18:36:31.083Z,13.55
2023-04-22T18:39:06.630Z,13.47
2023-04-22T18:41:40.184Z,13.35
2023-04-22T18:44:12.836Z,13.27
2023-04-22T18:46:45.598Z,13.17
2023-04-22T18:49:17.962Z,13.10
2023-04-22T18:51:50.977Z,12.99
2023-04-22T18:54:24.367Z,12.82
2023-04-22T18:56:58.929Z,12.72
2023-04-22T18:59:31.564Z,12.64
2023-04-22T19:02:05.228Z,12.58
2023-04-22T19:04:39.349Z,12.52
2023-04-22T19:07:11.087Z,12.44
2023-04-22T19:09:44.385Z,12.34
2023-04-22T19:12:19.757Z,12.27
2023-04-22T19:14:54.463Z,12.16
2023-04-22T19:17:27.588Z,12.06
2023-04-22T19:20:00.169Z,11.99
2023-04-22T19:22:32.905Z,11.89
2023-04-22T19:25:06.699Z,11.84
2023-04-22T19:27:39.452Z,11.81
2023-04-22T19:30:15.103Z,11.72
2023-04-22T19:32:47.663Z,11.67
2023-04-22T19:35:20.855Z,11.60
2023-04-22T19:37:53.609Z,11.54
2023-04-22T19:40:26.380Z,11.47
2023-04-22T19:43:00.482Z,11.37
2023-04-22T19:45:33.643Z,11.27
2023-04-22T19:48:07.602Z,11.17
2023-04-22T19:50:43.613Z,11.10
2023-04-22T19:53:17.612Z,11.02
2023-04-22T19:55:50.256Z,10.95
2023-04-22T19:58:24.053Z,10.88
2023-04-22T20:00:57.806Z,10.84
2023-04-22T20:03:31.395Z,10.79
2023-04-22T20:06:05.899Z,10.79
2023-04-22T20:08:42.284Z,10.77
2023-04-22T20:11:15.654Z,10.74
2023-04-22T20:13:49.808Z,10.67
2023-04-22T20:16:23.610Z,10.63
2023-04-22T20:18:56.752Z,10.60
2023-04-22T20:21:31.328Z,10.54
2023-04-22T20:24:06.431Z,10.48
2023-04-22T20:26:40.678Z,10.43
2023-04-22T20:29:13.323Z,10.40
2023-04-22T20:31:47.019Z,10.32
2023-04-22T20:34:20.352Z,10.30
2023-04-22T20:36:55.872Z,10.23
2023-04-22T20:39:30.527Z,10.19
2023-04-22T20:42:04.181Z,10.15
2023-04-22T20:44:36.813Z,10.12
2023-04-22T20:47:09.591Z,10.08
2023-04-22T20:49:43.289Z,10.02
2023-04-22T20:52:16.716Z,10.02
2023-04-22T20:54:55.467Z,9.98
2023-04-22T20:57:29.090Z,9.96
2023-04-22T21:00:02.470Z,9.92
2023-04-22T21:02:38.829Z,9.88
2023-04-22T21:05:15.165Z,9.84
2023-04-22T21:07:53.418Z,9.82
2023-04-22T21:10:27.318Z,9.80
2023-04-22T21:12:59.811Z,9.75
2023-04-22T21:15:33.790Z,9.72
2023-04-22T21:18:08.133Z,9.69
2023-04-22T21:20:46.860Z,9.67
2023-04-22T21:23:24.394Z,9.65
2023-04-22T21:25:58.990Z,9.61
2023-04-22T21:28:31.810Z,9.60
2023-04-22T21:31:07.512Z,9.54
2023-04-22T21:33:40.090Z,9.51
2023-04-22T21:36:13.997Z,9.47
2023-04-22T21:38:46.918Z,9.43
2023-04-22T21:41:20.633Z,9.36
2023-04-22T21:43:52.945Z,9.34
2023-04-22T21:46:26.020Z,9.27
2023-04-22T21:48:58.698Z,9.23
2023-04-22T21:51:31.728Z,9.15
2023-04-22T21:54:04.955Z,9.11
2023-04-22T21:56:38.710Z,9.05
2023-04-22T21:59:11.168Z,9.02
2023-04-22T22:01:43.796Z,8.98
2023-04-22T22:04:16.663Z,8.92
2023-04-22T22:06:50.173Z,8.87
2023-04-22T22:09:25.036Z,8.91
2023-04-22T22:11:57.909Z,8.88
2023-04-22T22:14:30.148Z,8.85
2023-04-22T22:17:02.581Z,8.82
2023-04-22T22:19:37.448Z,8.77
2023-04-22T22:22:10.717Z,8.77
2023-04-22T22:24:43.658Z,8.71
2023-04-22T22:27:16.804Z,8.69
2023-04-22T22:29:51.700Z,8.65
2023-04-22T22:32:24.522Z,8.65
2023-04-22T22:34:56.807Z,8.60
2023-04-22T22:37:29.681Z,8.56
2023-04-22T22:40:03.011Z,8.56
2023-04-22T22:42:36.418Z,8.50
2023-04-22T22:45:10.813Z,8.47
2023-04-22T22:47:43.969Z,8.43
2023-04-22T22:50:16.598Z,8.43
2023-04-22T22:52:49.930Z,8.40
2023-04-22T22:55:23.250Z,8.40
2023-04-22T22:57:55.853Z,8.35
2023-04-22T23:00:28.424Z,8.33
2023-04-22T23:03:01.052Z,8.32
2023-04-22T23:05:36.375Z,8.30
2023-04-22T23:08:09.019Z,8.26
2023-04-22T23:10:43.892Z,8.23
2023-04-22T23:13:16.715Z,8.23
2023-04-22T23:15:49.094Z,8.22
2023-04-22T23:18:22.014Z,8.18
2023-04-22T23:20:55.044Z,8.16
2023-04-22T23:23:29.569Z,8.18
2023-04-22T23:26:02.124Z,8.12
2023-04-22T23:28:35.771Z,8.12
2023-04-22T23:31:10.513Z,8.09
2023-04-22T23:33:46.686Z,8.08
2023-04-22T23:36:22.484Z,8.02
2023-04-22T23:38:57.762Z,7.98
2023-04-22T23:41:30.552Z,7.98
2023-04-22T23:44:04.116Z,7.97
2023-04-22T23:46:37.134Z,7.95
2023-04-22T23:49:09.923Z,7.97
2023-04-22T23:51:42.826Z,7.91
2023-04-22T23:54:16.344Z,7.85
2023-04-22T23:56:51.946Z,7.87
2023-04-22T23:59:25.856Z,7.83
